sensor_id;sensor_type;location;lat;lon;timestamp;P1;durP1;ratioP1;P2;durP2;ratioP2
25351;SDS011;13304;48.464;8.712;2022-08-05T00:00:01;4.65;;;1.90;;
25351;SDS011;13304;48.464;8.712;2022-08-05T00:02:28;6.10;;;2.20;;
25351;SDS011;13304;48.464;8.712;2022-08-05T00:04:53;5.47;;;2.33;;
25351;SDS011;13304;48.464;8.712;2022-08-05T00:07:19;5.25;;;2.00;;
25351;SDS011;13304;48.464;8.712;2022-08-05T00:09:45;3.08;;;2.28;;
25351;SDS011;13304;48.464;8.712;2022-08-05T00:12:11;6.68;;;1.98;;
25351;SDS011;13304;48.464;8.712;2022-08-05T00:14:36;2.53;;;2.28;;
25351;SDS011;13304;48.464;8.712;2022-08-05T00:17:02;3.78;;;2.05;;
25351;SDS011;13304;48.464;8.712;2022-08-05T00:19:28;2.30;;;1.90;;
25351;SDS011;13304;48.464;8.712;2022-08-05T00:21:54;4.07;;;2.10;;
25351;SDS011;13304;48.464;8.712;2022-08-05T00:24:20;5.60;;;2.30;;
25351;SDS011;13304;48.464;8.712;2022-08-05T00:26:46;4.68;;;2.22;;
25351;SDS011;13304;48.464;8.712;2022-08-05T00:29:12;3.50;;;2.10;;
25351;SDS011;13304;48.464;8.712;2022-08-05T00:31:37;4.07;;;2.20;;
25351;SDS011;13304;48.464;8.712;2022-08-05T00:34:03;3.75;;;2.33;;
25351;SDS011;13304;48.464;8.712;2022-08-05T00:36:29;3.53;;;1.90;;
25351;SDS011;13304;48.464;8.712;2022-08-05T00:38:55;2.10;;;1.90;;
25351;SDS011;13304;48.464;8.712;2022-08-05T00:41:27;3.25;;;2.22;;
25351;SDS011;13304;48.464;8.712;2022-08-05T00:43:55;3.45;;;2.00;;
25351;SDS011;13304;48.464;8.712;2022-08-05T00:46:21;3.42;;;1.92;;
25351;SDS011;13304;48.464;8.712;2022-08-05T00:48:47;4.82;;;2.25;;
25351;SDS011;13304;48.464;8.712;2022-08-05T00:51:13;4.53;;;2.30;;
25351;SDS011;13304;48.464;8.712;2022-08-05T00:53:39;8.65;;;2.28;;
25351;SDS011;13304;48.464;8.712;2022-08-05T00:56:05;4.07;;;2.28;;
25351;SDS011;13304;48.464;8.712;2022-08-05T00:58:31;5.38;;;2.40;;
25351;SDS011;13304;48.464;8.712;2022-08-05T01:00:57;4.63;;;2.15;;
25351;SDS011;13304;48.464;8.712;2022-08-05T01:03:23;2.95;;;2.20;;
25351;SDS011;13304;48.464;8.712;2022-08-05T01:05:53;2.85;;;2.20;;
25351;SDS011;13304;48.464;8.712;2022-08-05T01:08:18;4.07;;;2.30;;
25351;SDS011;13304;48.464;8.712;2022-08-05T01:10:54;4.95;;;2.30;;
25351;SDS011;13304;48.464;8.712;2022-08-05T01:13:26;7.38;;;2.00;;
25351;SDS011;13304;48.464;8.712;2022-08-05T01:18:32;5.78;;;2.30;;
25351;SDS011;13304;48.464;8.712;2022-08-05T01:24:09;3.13;;;2.28;;
25351;SDS011;13304;48.464;8.712;2022-08-05T01:27:08;5.80;;;2.30;;
25351;SDS011;13304;48.464;8.712;2022-08-05T01:29:55;2.55;;;2.10;;
25351;SDS011;13304;48.464;8.712;2022-08-05T01:32:24;7.90;;;2.50;;
25351;SDS011;13304;48.464;8.712;2022-08-05T01:34:59;4.70;;;2.65;;
25351;SDS011;13304;48.464;8.712;2022-08-05T01:37:31;5.07;;;2.50;;
25351;SDS011;13304;48.464;8.712;2022-08-05T01:40:02;4.72;;;2.40;;
25351;SDS011;13304;48.464;8.712;2022-08-05T01:42:30;5.22;;;2.65;;
25351;SDS011;13304;48.464;8.712;2022-08-05T01:44:59;10.07;;;2.33;;
25351;SDS011;13304;48.464;8.712;2022-08-05T01:47:26;4.93;;;2.17;;
25351;SDS011;13304;48.464;8.712;2022-08-05T01:49:55;4.30;;;2.58;;
25351;SDS011;13304;48.464;8.712;2022-08-05T01:52:23;5.95;;;2.30;;
25351;SDS011;13304;48.464;8.712;2022-08-05T01:54:57;3.70;;;2.22;;
25351;SDS011;13304;48.464;8.712;2022-08-05T01:57:27;7.32;;;2.28;;
25351;SDS011;13304;48.464;8.712;2022-08-05T01:59:58;5.15;;;2.22;;
25351;SDS011;13304;48.464;8.712;2022-08-05T02:02:27;6.88;;;2.60;;
25351;SDS011;13304;48.464;8.712;2022-08-05T02:04:59;5.93;;;2.50;;
25351;SDS011;13304;48.464;8.712;2022-08-05T02:07:27;3.35;;;2.22;;
25351;SDS011;13304;48.464;8.712;2022-08-05T02:09:55;7.40;;;2.28;;
25351;SDS011;13304;48.464;8.712;2022-08-05T02:12:25;5.53;;;2.15;;
25351;SDS011;13304;48.464;8.712;2022-08-05T02:15:14;5.78;;;2.50;;
25351;SDS011;13304;48.464;8.712;2022-08-05T02:17:51;6.07;;;2.72;;
25351;SDS011;13304;48.464;8.712;2022-08-05T02:20:26;3.50;;;2.22;;
25351;SDS011;13304;48.464;8.712;2022-08-05T02:22:57;3.83;;;2.40;;
25351;SDS011;13304;48.464;8.712;2022-08-05T02:25:30;4.20;;;2.25;;
25351;SDS011;13304;48.464;8.712;2022-08-05T02:27:58;3.17;;;2.50;;
25351;SDS011;13304;48.464;8.712;2022-08-05T02:30:27;4.97;;;2.37;;
25351;SDS011;13304;48.464;8.712;2022-08-05T02:32:59;3.47;;;2.50;;
25351;SDS011;13304;48.464;8.712;2022-08-05T02:35:26;3.03;;;2.53;;
25351;SDS011;13304;48.464;8.712;2022-08-05T02:37:53;3.38;;;2.38;;
25351;SDS011;13304;48.464;8.712;2022-08-05T02:40:22;3.83;;;2.42;;
25351;SDS011;13304;48.464;8.712;2022-08-05T02:42:49;3.55;;;2.40;;
25351;SDS011;13304;48.464;8.712;2022-08-05T02:45:17;3.28;;;2.20;;
25351;SDS011;13304;48.464;8.712;2022-08-05T02:47:44;3.47;;;2.50;;
25351;SDS011;13304;48.464;8.712;2022-08-05T02:50:11;3.53;;;2.80;;
25351;SDS011;13304;48.464;8.712;2022-08-05T02:52:39;3.13;;;2.60;;
25351;SDS011;13304;48.464;8.712;2022-08-05T02:55:06;3.92;;;2.55;;
25351;SDS011;13304;48.464;8.712;2022-08-05T02:57:34;3.15;;;2.33;;
25351;SDS011;13304;48.464;8.712;2022-08-05T03:00:02;6.78;;;2.50;;
25351;SDS011;13304;48.464;8.712;2022-08-05T03:02:30;6.10;;;2.97;;
25351;SDS011;13304;48.464;8.712;2022-08-05T03:05:01;5.25;;;2.58;;
25351;SDS011;13304;48.464;8.712;2022-08-05T03:07:28;4.65;;;2.63;;
25351;SDS011;13304;48.464;8.712;2022-08-05T03:09:54;3.65;;;2.90;;
25351;SDS011;13304;48.464;8.712;2022-08-05T03:12:34;2.83;;;2.33;;
25351;SDS011;13304;48.464;8.712;2022-08-05T03:15:02;4.30;;;2.75;;
25351;SDS011;13304;48.464;8.712;2022-08-05T03:17:30;6.55;;;3.03;;
25351;SDS011;13304;48.464;8.712;2022-08-05T03:19:56;7.15;;;3.13;;
25351;SDS011;13304;48.464;8.712;2022-08-05T03:22:22;6.35;;;3.13;;
25351;SDS011;13304;48.464;8.712;2022-08-05T03:24:49;3.95;;;3.00;;
25351;SDS011;13304;48.464;8.712;2022-08-05T03:27:15;7.78;;;3.47;;
25351;SDS011;13304;48.464;8.712;2022-08-05T03:29:42;3.60;;;2.80;;
25351;SDS011;13304;48.464;8.712;2022-08-05T03:32:08;4.43;;;3.08;;
25351;SDS011;13304;48.464;8.712;2022-08-05T03:34:34;4.28;;;2.70;;
25351;SDS011;13304;48.464;8.712;2022-08-05T03:37:01;5.93;;;3.00;;
25351;SDS011;13304;48.464;8.712;2022-08-05T03:39:27;4.15;;;3.25;;
25351;SDS011;13304;48.464;8.712;2022-08-05T03:41:53;3.67;;;3.10;;
25351;SDS011;13304;48.464;8.712;2022-08-05T03:44:20;5.78;;;3.35;;
25351;SDS011;13304;48.464;8.712;2022-08-05T03:46:45;9.02;;;3.40;;
25351;SDS011;13304;48.464;8.712;2022-08-05T03:49:11;4.03;;;3.40;;
25351;SDS011;13304;48.464;8.712;2022-08-05T03:51:37;4.85;;;4.10;;
25351;SDS011;13304;48.464;8.712;2022-08-05T03:54:09;5.05;;;3.45;;
25351;SDS011;13304;48.464;8.712;2022-08-05T03:56:41;7.53;;;4.60;;
25351;SDS011;13304;48.464;8.712;2022-08-05T03:59:12;6.38;;;4.20;;
25351;SDS011;13304;48.464;8.712;2022-08-05T04:01:43;4.55;;;3.90;;
25351;SDS011;13304;48.464;8.712;2022-08-05T04:04:11;4.75;;;3.70;;
25351;SDS011;13304;48.464;8.712;2022-08-05T04:06:40;4.07;;;3.20;;
25351;SDS011;13304;48.464;8.712;2022-08-05T04:09:07;7.07;;;3.75;;
25351;SDS011;13304;48.464;8.712;2022-08-05T04:11:36;9.20;;;3.83;;
25351;SDS011;13304;48.464;8.712;2022-08-05T04:14:02;8.70;;;3.35;;
25351;SDS011;13304;48.464;8.712;2022-08-05T04:16:30;7.80;;;3.22;;
25351;SDS011;13304;48.464;8.712;2022-08-05T04:18:56;4.72;;;3.05;;
25351;SDS011;13304;48.464;8.712;2022-08-05T04:21:22;3.78;;;2.97;;
25351;SDS011;13304;48.464;8.712;2022-08-05T04:23:48;6.15;;;3.20;;
25351;SDS011;13304;48.464;8.712;2022-08-05T04:26:14;5.90;;;3.05;;
25351;SDS011;13304;48.464;8.712;2022-08-05T04:28:40;4.50;;;3.00;;
25351;SDS011;13304;48.464;8.712;2022-08-05T04:31:06;4.35;;;2.90;;
25351;SDS011;13304;48.464;8.712;2022-08-05T04:33:32;4.65;;;2.75;;
25351;SDS011;13304;48.464;8.712;2022-08-05T04:35:57;5.38;;;2.70;;
25351;SDS011;13304;48.464;8.712;2022-08-05T04:38:23;7.20;;;2.70;;
25351;SDS011;13304;48.464;8.712;2022-08-05T04:40:49;4.95;;;3.05;;
25351;SDS011;13304;48.464;8.712;2022-08-05T04:43:15;5.28;;;2.65;;
25351;SDS011;13304;48.464;8.712;2022-08-05T04:45:40;3.17;;;2.40;;
25351;SDS011;13304;48.464;8.712;2022-08-05T04:48:07;8.00;;;2.90;;
25351;SDS011;13304;48.464;8.712;2022-08-05T04:50:40;7.97;;;3.17;;
25351;SDS011;13304;48.464;8.712;2022-08-05T04:53:11;4.40;;;2.72;;
25351;SDS011;13304;48.464;8.712;2022-08-05T04:55:38;4.40;;;2.55;;
25351;SDS011;13304;48.464;8.712;2022-08-05T04:58:05;8.20;;;2.80;;
25351;SDS011;13304;48.464;8.712;2022-08-05T05:00:32;5.60;;;2.45;;
25351;SDS011;13304;48.464;8.712;2022-08-05T05:02:59;6.65;;;2.33;;
25351;SDS011;13304;48.464;8.712;2022-08-05T05:05:25;4.82;;;2.60;;
25351;SDS011;13304;48.464;8.712;2022-08-05T05:07:52;3.53;;;2.30;;
25351;SDS011;13304;48.464;8.712;2022-08-05T05:10:18;4.30;;;2.22;;
25351;SDS011;13304;48.464;8.712;2022-08-05T05:12:43;4.65;;;2.35;;
25351;SDS011;13304;48.464;8.712;2022-08-05T05:15:09;5.63;;;2.33;;
25351;SDS011;13304;48.464;8.712;2022-08-05T05:17:39;7.78;;;2.20;;
25351;SDS011;13304;48.464;8.712;2022-08-05T05:20:08;4.78;;;2.20;;
25351;SDS011;13304;48.464;8.712;2022-08-05T05:22:34;6.57;;;2.38;;
25351;SDS011;13304;48.464;8.712;2022-08-05T05:25:00;4.40;;;2.22;;
25351;SDS011;13304;48.464;8.712;2022-08-05T05:27:27;5.40;;;2.53;;
25351;SDS011;13304;48.464;8.712;2022-08-05T05:29:54;3.42;;;2.28;;
25351;SDS011;13304;48.464;8.712;2022-08-05T05:32:19;6.50;;;2.42;;
25351;SDS011;13304;48.464;8.712;2022-08-05T05:34:45;3.35;;;2.38;;
25351;SDS011;13304;48.464;8.712;2022-08-05T05:37:11;6.50;;;2.85;;
25351;SDS011;13304;48.464;8.712;2022-08-05T05:39:38;5.82;;;2.58;;
25351;SDS011;13304;48.464;8.712;2022-08-05T05:42:04;7.20;;;2.30;;
25351;SDS011;13304;48.464;8.712;2022-08-05T05:44:31;5.20;;;1.95;;
25351;SDS011;13304;48.464;8.712;2022-08-05T05:46:56;4.47;;;2.25;;
25351;SDS011;13304;48.464;8.712;2022-08-05T05:49:22;5.85;;;2.45;;
25351;SDS011;13304;48.464;8.712;2022-08-05T05:51:48;14.13;;;2.70;;
25351;SDS011;13304;48.464;8.712;2022-08-05T05:54:14;6.82;;;2.33;;
25351;SDS011;13304;48.464;8.712;2022-08-05T05:56:40;7.82;;;2.60;;
25351;SDS011;13304;48.464;8.712;2022-08-05T05:59:06;5.65;;;2.40;;
25351;SDS011;13304;48.464;8.712;2022-08-05T06:01:32;10.63;;;2.63;;
25351;SDS011;13304;48.464;8.712;2022-08-05T06:03:59;4.47;;;2.50;;
25351;SDS011;13304;48.464;8.712;2022-08-05T06:06:25;4.88;;;2.47;;
25351;SDS011;13304;48.464;8.712;2022-08-05T06:08:51;6.53;;;2.30;;
25351;SDS011;13304;48.464;8.712;2022-08-05T06:11:17;5.07;;;2.50;;
25351;SDS011;13304;48.464;8.712;2022-08-05T06:13:42;5.28;;;2.78;;
25351;SDS011;13304;48.464;8.712;2022-08-05T06:16:08;5.65;;;2.88;;
25351;SDS011;13304;48.464;8.712;2022-08-05T06:18:34;6.88;;;3.03;;
25351;SDS011;13304;48.464;8.712;2022-08-05T06:21:02;6.78;;;2.78;;
25351;SDS011;13304;48.464;8.712;2022-08-05T06:23:28;8.73;;;2.88;;
25351;SDS011;13304;48.464;8.712;2022-08-05T06:25:55;11.43;;;3.13;;
25351;SDS011;13304;48.464;8.712;2022-08-05T06:28:21;4.68;;;2.53;;
25351;SDS011;13304;48.464;8.712;2022-08-05T06:30:47;6.88;;;2.67;;
25351;SDS011;13304;48.464;8.712;2022-08-05T06:33:13;5.32;;;3.08;;
25351;SDS011;13304;48.464;8.712;2022-08-05T06:35:39;12.30;;;2.67;;
25351;SDS011;13304;48.464;8.712;2022-08-05T06:38:05;6.75;;;2.50;;
25351;SDS011;13304;48.464;8.712;2022-08-05T06:40:30;6.50;;;2.60;;
25351;SDS011;13304;48.464;8.712;2022-08-05T06:42:56;5.25;;;2.70;;
25351;SDS011;13304;48.464;8.712;2022-08-05T06:45:22;4.68;;;2.22;;
25351;SDS011;13304;48.464;8.712;2022-08-05T06:47:48;3.45;;;2.40;;
25351;SDS011;13304;48.464;8.712;2022-08-05T06:50:14;7.50;;;2.80;;
25351;SDS011;13304;48.464;8.712;2022-08-05T06:52:39;6.75;;;2.60;;
25351;SDS011;13304;48.464;8.712;2022-08-05T06:55:05;8.70;;;2.58;;
25351;SDS011;13304;48.464;8.712;2022-08-05T06:57:31;4.30;;;2.28;;
25351;SDS011;13304;48.464;8.712;2022-08-05T06:59:57;6.20;;;2.47;;
25351;SDS011;13304;48.464;8.712;2022-08-05T07:02:23;4.00;;;2.20;;
25351;SDS011;13304;48.464;8.712;2022-08-05T07:04:49;4.93;;;2.35;;
25351;SDS011;13304;48.464;8.712;2022-08-05T07:07:15;5.50;;;2.22;;
25351;SDS011;13304;48.464;8.712;2022-08-05T07:09:41;3.63;;;2.17;;
25351;SDS011;13304;48.464;8.712;2022-08-05T07:12:07;3.78;;;1.67;;
25351;SDS011;13304;48.464;8.712;2022-08-05T07:14:33;4.53;;;1.90;;
25351;SDS011;13304;48.464;8.712;2022-08-05T07:17:17;3.97;;;1.45;;
25351;SDS011;13304;48.464;8.712;2022-08-05T07:19:43;2.97;;;1.75;;
25351;SDS011;13304;48.464;8.712;2022-08-05T07:22:08;3.70;;;1.60;;
25351;SDS011;13304;48.464;8.712;2022-08-05T07:24:34;3.92;;;1.52;;
25351;SDS011;13304;48.464;8.712;2022-08-05T07:27:00;2.25;;;1.60;;
25351;SDS011;13304;48.464;8.712;2022-08-05T07:29:26;2.45;;;1.73;;
25351;SDS011;13304;48.464;8.712;2022-08-05T07:31:51;3.92;;;1.70;;
25351;SDS011;13304;48.464;8.712;2022-08-05T07:34:17;2.28;;;1.70;;
25351;SDS011;13304;48.464;8.712;2022-08-05T07:36:43;2.17;;;1.52;;
25351;SDS011;13304;48.464;8.712;2022-08-05T07:39:09;4.40;;;1.40;;
25351;SDS011;13304;48.464;8.712;2022-08-05T07:41:34;1.52;;;1.42;;
25351;SDS011;13304;48.464;8.712;2022-08-05T07:44:01;3.53;;;1.80;;
25351;SDS011;13304;48.464;8.712;2022-08-05T07:46:28;2.88;;;1.58;;
25351;SDS011;13304;48.464;8.712;2022-08-05T07:48:55;9.68;;;1.50;;
25351;SDS011;13304;48.464;8.712;2022-08-05T07:51:22;1.83;;;1.40;;
25351;SDS011;13304;48.464;8.712;2022-08-05T07:53:48;1.92;;;1.40;;
25351;SDS011;13304;48.464;8.712;2022-08-05T07:56:14;5.25;;;1.65;;
25351;SDS011;13304;48.464;8.712;2022-08-05T07:58:40;1.55;;;1.45;;
25351;SDS011;13304;48.464;8.712;2022-08-05T08:01:06;4.28;;;1.50;;
25351;SDS011;13304;48.464;8.712;2022-08-05T08:03:32;1.85;;;1.50;;
25351;SDS011;13304;48.464;8.712;2022-08-05T08:05:58;3.45;;;1.40;;
25351;SDS011;13304;48.464;8.712;2022-08-05T08:08:24;6.88;;;1.50;;
25351;SDS011;13304;48.464;8.712;2022-08-05T08:10:49;2.63;;;1.40;;
25351;SDS011;13304;48.464;8.712;2022-08-05T08:13:15;2.78;;;1.58;;
25351;SDS011;13304;48.464;8.712;2022-08-05T08:15:41;2.97;;;1.63;;
25351;SDS011;13304;48.464;8.712;2022-08-05T08:18:07;2.28;;;1.38;;
25351;SDS011;13304;48.464;8.712;2022-08-05T08:20:32;4.50;;;1.58;;
25351;SDS011;13304;48.464;8.712;2022-08-05T08:22:58;4.05;;;1.48;;
25351;SDS011;13304;48.464;8.712;2022-08-05T08:25:25;1.52;;;1.30;;
25351;SDS011;13304;48.464;8.712;2022-08-05T08:27:52;2.55;;;1.52;;
25351;SDS011;13304;48.464;8.712;2022-08-05T08:30:19;4.25;;;1.40;;
25351;SDS011;13304;48.464;8.712;2022-08-05T08:32:45;1.85;;;1.48;;
25351;SDS011;13304;48.464;8.712;2022-08-05T08:35:11;2.60;;;1.42;;
25351;SDS011;13304;48.464;8.712;2022-08-05T08:37:36;1.73;;;1.40;;
25351;SDS011;13304;48.464;8.712;2022-08-05T08:40:03;3.30;;;1.40;;
25351;SDS011;13304;48.464;8.712;2022-08-05T08:42:29;7.22;;;1.70;;
25351;SDS011;13304;48.464;8.712;2022-08-05T08:44:57;2.22;;;1.40;;
25351;SDS011;13304;48.464;8.712;2022-08-05T08:47:25;2.53;;;1.60;;
25351;SDS011;13304;48.464;8.712;2022-08-05T08:49:52;4.70;;;1.80;;
25351;SDS011;13304;48.464;8.712;2022-08-05T08:52:28;3.23;;;1.73;;
25351;SDS011;13304;48.464;8.712;2022-08-05T08:54:55;3.13;;;1.45;;
25351;SDS011;13304;48.464;8.712;2022-08-05T08:57:21;1.83;;;1.50;;
25351;SDS011;13304;48.464;8.712;2022-08-05T08:59:48;3.05;;;1.80;;
25351;SDS011;13304;48.464;8.712;2022-08-05T09:02:14;2.05;;;1.48;;
25351;SDS011;13304;48.464;8.712;2022-08-05T09:04:43;2.78;;;1.50;;
25351;SDS011;13304;48.464;8.712;2022-08-05T09:07:10;1.65;;;1.50;;
25351;SDS011;13304;48.464;8.712;2022-08-05T09:09:36;2.78;;;1.50;;
25351;SDS011;13304;48.464;8.712;2022-08-05T09:12:02;2.47;;;1.75;;
25351;SDS011;13304;48.464;8.712;2022-08-05T09:14:32;2.83;;;1.60;;
25351;SDS011;13304;48.464;8.712;2022-08-05T09:16:59;3.17;;;1.58;;
25351;SDS011;13304;48.464;8.712;2022-08-05T09:19:24;1.92;;;1.52;;
25351;SDS011;13304;48.464;8.712;2022-08-05T09:21:50;3.15;;;1.83;;
25351;SDS011;13304;48.464;8.712;2022-08-05T09:24:16;3.95;;;1.73;;
25351;SDS011;13304;48.464;8.712;2022-08-05T09:26:45;2.45;;;1.60;;
25351;SDS011;13304;48.464;8.712;2022-08-05T09:29:14;3.22;;;1.83;;
25351;SDS011;13304;48.464;8.712;2022-08-05T09:31:40;2.83;;;1.58;;
25351;SDS011;13304;48.464;8.712;2022-08-05T09:34:08;2.42;;;1.80;;
25351;SDS011;13304;48.464;8.712;2022-08-05T09:39:09;2.97;;;1.80;;
25351;SDS011;13304;48.464;8.712;2022-08-05T09:47:13;4.70;;;1.65;;
25351;SDS011;13304;48.464;8.712;2022-08-05T09:49:50;2.67;;;2.05;;
25351;SDS011;13304;48.464;8.712;2022-08-05T09:52:28;3.03;;;1.80;;
25351;SDS011;13304;48.464;8.712;2022-08-05T09:55:08;2.05;;;1.60;;
25351;SDS011;13304;48.464;8.712;2022-08-05T10:00:17;7.28;;;1.88;;
25351;SDS011;13304;48.464;8.712;2022-08-05T10:02:45;2.25;;;1.65;;
25351;SDS011;13304;48.464;8.712;2022-08-05T10:05:13;2.80;;;1.80;;
25351;SDS011;13304;48.464;8.712;2022-08-05T10:10:09;2.20;;;1.77;;
25351;SDS011;13304;48.464;8.712;2022-08-05T10:20:36;3.75;;;2.05;;
25351;SDS011;13304;48.464;8.712;2022-08-05T10:23:23;2.00;;;1.50;;
25351;SDS011;13304;48.464;8.712;2022-08-05T10:25:58;17.95;;;2.15;;
25351;SDS011;13304;48.464;8.712;2022-08-05T10:28:30;2.28;;;1.48;;
25351;SDS011;13304;48.464;8.712;2022-08-05T10:30:59;3.33;;;1.80;;
25351;SDS011;13304;48.464;8.712;2022-08-05T10:35:52;3.97;;;1.65;;
25351;SDS011;13304;48.464;8.712;2022-08-05T10:38:19;2.80;;;1.80;;
25351;SDS011;13304;48.464;8.712;2022-08-05T10:46:09;3.97;;;1.75;;
25351;SDS011;13304;48.464;8.712;2022-08-05T10:48:41;3.63;;;1.80;;
25351;SDS011;13304;48.464;8.712;2022-08-05T10:51:10;2.40;;;1.77;;
25351;SDS011;13304;48.464;8.712;2022-08-05T10:53:41;2.38;;;1.70;;
25351;SDS011;13304;48.464;8.712;2022-08-05T11:01:35;4.38;;;1.70;;
25351;SDS011;13304;48.464;8.712;2022-08-05T11:09:23;3.88;;;1.90;;
25351;SDS011;13304;48.464;8.712;2022-08-05T11:11:50;5.05;;;1.77;;
25351;SDS011;13304;48.464;8.712;2022-08-05T11:14:28;1.88;;;1.70;;
25351;SDS011;13304;48.464;8.712;2022-08-05T11:19:51;3.15;;;1.50;;
25351;SDS011;13304;48.464;8.712;2022-08-05T11:22:36;2.67;;;1.63;;
25351;SDS011;13304;48.464;8.712;2022-08-05T11:36:00;3.30;;;1.70;;
25351;SDS011;13304;48.464;8.712;2022-08-05T11:43:54;3.03;;;1.80;;
25351;SDS011;13304;48.464;8.712;2022-08-05T11:48:52;2.28;;;1.70;;
25351;SDS011;13304;48.464;8.712;2022-08-05T11:51:18;3.78;;;1.77;;
25351;SDS011;13304;48.464;8.712;2022-08-05T11:53:45;2.63;;;1.70;;
25351;SDS011;13304;48.464;8.712;2022-08-05T11:56:11;2.97;;;1.73;;
25351;SDS011;13304;48.464;8.712;2022-08-05T11:58:38;2.13;;;1.65;;
25351;SDS011;13304;48.464;8.712;2022-08-05T12:01:13;3.60;;;1.58;;
25351;SDS011;13304;48.464;8.712;2022-08-05T12:03:53;2.35;;;1.65;;
25351;SDS011;13304;48.464;8.712;2022-08-05T12:06:25;7.75;;;1.88;;
25351;SDS011;13304;48.464;8.712;2022-08-05T12:08:55;2.72;;;1.75;;
25351;SDS011;13304;48.464;8.712;2022-08-05T12:11:27;2.47;;;1.85;;
25351;SDS011;13304;48.464;8.712;2022-08-05T12:13:57;1.90;;;1.70;;
25351;SDS011;13304;48.464;8.712;2022-08-05T12:18:51;4.30;;;1.70;;
25351;SDS011;13304;48.464;8.712;2022-08-05T12:21:18;1.80;;;1.70;;
25351;SDS011;13304;48.464;8.712;2022-08-05T12:26:24;2.80;;;1.87;;
25351;SDS011;13304;48.464;8.712;2022-08-05T12:28:59;3.33;;;2.00;;
25351;SDS011;13304;48.464;8.712;2022-08-05T12:31:26;2.08;;;1.70;;
25351;SDS011;13304;48.464;8.712;2022-08-05T12:33:51;2.28;;;1.73;;
25351;SDS011;13304;48.464;8.712;2022-08-05T12:36:19;4.20;;;1.90;;
25351;SDS011;13304;48.464;8.712;2022-08-05T12:38:45;2.42;;;1.77;;
25351;SDS011;13304;48.464;8.712;2022-08-05T12:41:11;6.63;;;1.70;;
25351;SDS011;13304;48.464;8.712;2022-08-05T12:43:49;2.58;;;1.60;;
25351;SDS011;13304;48.464;8.712;2022-08-05T12:46:30;3.38;;;1.95;;
25351;SDS011;13304;48.464;8.712;2022-08-05T12:51:45;4.00;;;1.98;;
25351;SDS011;13304;48.464;8.712;2022-08-05T12:54:16;2.70;;;2.20;;
25351;SDS011;13304;48.464;8.712;2022-08-05T12:56:57;7.18;;;1.83;;
25351;SDS011;13304;48.464;8.712;2022-08-05T12:59:25;3.10;;;1.80;;
25351;SDS011;13304;48.464;8.712;2022-08-05T13:01:56;3.67;;;2.10;;
25351;SDS011;13304;48.464;8.712;2022-08-05T13:04:33;3.53;;;1.90;;
25351;SDS011;13304;48.464;8.712;2022-08-05T13:07:01;2.10;;;1.90;;
25351;SDS011;13304;48.464;8.712;2022-08-05T13:09:32;4.10;;;1.98;;
25351;SDS011;13304;48.464;8.712;2022-08-05T13:12:06;3.42;;;2.03;;
25351;SDS011;13304;48.464;8.712;2022-08-05T13:14:43;3.03;;;1.73;;
25351;SDS011;13304;48.464;8.712;2022-08-05T13:17:16;4.45;;;1.80;;
25351;SDS011;13304;48.464;8.712;2022-08-05T13:22:36;2.25;;;1.83;;
25351;SDS011;13304;48.464;8.712;2022-08-05T13:25:04;5.05;;;2.30;;
25351;SDS011;13304;48.464;8.712;2022-08-05T13:30:02;4.28;;;1.85;;
25351;SDS011;13304;48.464;8.712;2022-08-05T13:32:31;4.10;;;2.08;;
25351;SDS011;13304;48.464;8.712;2022-08-05T13:34:57;7.22;;;1.90;;
25351;SDS011;13304;48.464;8.712;2022-08-05T13:37:22;4.00;;;2.05;;
25351;SDS011;13304;48.464;8.712;2022-08-05T13:39:49;4.40;;;2.17;;
25351;SDS011;13304;48.464;8.712;2022-08-05T13:42:20;2.83;;;1.98;;
25351;SDS011;13304;48.464;8.712;2022-08-05T13:44:49;2.83;;;1.80;;
25351;SDS011;13304;48.464;8.712;2022-08-05T13:47:19;8.98;;;1.80;;
25351;SDS011;13304;48.464;8.712;2022-08-05T13:49:45;5.03;;;2.50;;
25351;SDS011;13304;48.464;8.712;2022-08-05T13:52:18;4.10;;;2.03;;
25351;SDS011;13304;48.464;8.712;2022-08-05T13:54:45;3.20;;;2.05;;
25351;SDS011;13304;48.464;8.712;2022-08-05T13:57:12;5.60;;;1.77;;
25351;SDS011;13304;48.464;8.712;2022-08-05T13:59:39;5.65;;;2.22;;
25351;SDS011;13304;48.464;8.712;2022-08-05T14:02:06;3.78;;;2.13;;
25351;SDS011;13304;48.464;8.712;2022-08-05T14:04:44;5.07;;;2.00;;
25351;SDS011;13304;48.464;8.712;2022-08-05T14:07:30;3.80;;;2.08;;
25351;SDS011;13304;48.464;8.712;2022-08-05T14:09:58;5.28;;;2.13;;
25351;SDS011;13304;48.464;8.712;2022-08-05T14:12:25;2.58;;;1.67;;
25351;SDS011;13304;48.464;8.712;2022-08-05T14:14:51;8.52;;;2.40;;
25351;SDS011;13304;48.464;8.712;2022-08-05T14:17:16;16.80;;;3.13;;
25351;SDS011;13304;48.464;8.712;2022-08-05T14:19:43;4.00;;;2.38;;
25351;SDS011;13304;48.464;8.712;2022-08-05T14:22:09;6.55;;;2.70;;
25351;SDS011;13304;48.464;8.712;2022-08-05T14:24:35;6.43;;;2.58;;
25351;SDS011;13304;48.464;8.712;2022-08-05T14:27:02;6.20;;;2.20;;
25351;SDS011;13304;48.464;8.712;2022-08-05T14:29:28;4.80;;;2.38;;
25351;SDS011;13304;48.464;8.712;2022-08-05T14:31:54;5.60;;;2.10;;
25351;SDS011;13304;48.464;8.712;2022-08-05T14:34:20;4.18;;;2.50;;
25351;SDS011;13304;48.464;8.712;2022-08-05T14:36:46;5.90;;;2.42;;
25351;SDS011;13304;48.464;8.712;2022-08-05T14:39:11;3.05;;;2.20;;
25351;SDS011;13304;48.464;8.712;2022-08-05T14:41:37;5.15;;;2.47;;
25351;SDS011;13304;48.464;8.712;2022-08-05T14:44:03;4.50;;;2.33;;
25351;SDS011;13304;48.464;8.712;2022-08-05T14:46:29;6.30;;;2.45;;
25351;SDS011;13304;48.464;8.712;2022-08-05T14:48:56;5.25;;;1.98;;
25351;SDS011;13304;48.464;8.712;2022-08-05T14:51:23;7.80;;;2.40;;
25351;SDS011;13304;48.464;8.712;2022-08-05T14:53:49;6.60;;;1.98;;
25351;SDS011;13304;48.464;8.712;2022-08-05T14:56:15;7.22;;;2.15;;
25351;SDS011;13304;48.464;8.712;2022-08-05T14:58:40;5.15;;;1.95;;
25351;SDS011;13304;48.464;8.712;2022-08-05T15:01:06;4.97;;;1.77;;
25351;SDS011;13304;48.464;8.712;2022-08-05T15:03:33;2.90;;;1.83;;
25351;SDS011;13304;48.464;8.712;2022-08-05T15:05:58;2.47;;;1.70;;
25351;SDS011;13304;48.464;8.712;2022-08-05T15:08:25;2.35;;;1.95;;
25351;SDS011;13304;48.464;8.712;2022-08-05T15:10:51;5.72;;;2.00;;
25351;SDS011;13304;48.464;8.712;2022-08-05T15:13:16;5.18;;;1.80;;
25351;SDS011;13304;48.464;8.712;2022-08-05T15:15:42;3.75;;;2.30;;
25351;SDS011;13304;48.464;8.712;2022-08-05T15:18:08;3.30;;;1.80;;
25351;SDS011;13304;48.464;8.712;2022-08-05T15:20:34;3.13;;;2.10;;
25351;SDS011;13304;48.464;8.712;2022-08-05T15:23:07;3.30;;;2.10;;
25351;SDS011;13304;48.464;8.712;2022-08-05T15:25:35;5.35;;;1.80;;
25351;SDS011;13304;48.464;8.712;2022-08-05T15:28:01;4.00;;;1.65;;
25351;SDS011;13304;48.464;8.712;2022-08-05T15:30:27;4.85;;;1.90;;
25351;SDS011;13304;48.464;8.712;2022-08-05T15:32:56;4.82;;;1.75;;
25351;SDS011;13304;48.464;8.712;2022-08-05T15:35:22;2.88;;;1.92;;
25351;SDS011;13304;48.464;8.712;2022-08-05T15:37:48;3.30;;;2.05;;
25351;SDS011;13304;48.464;8.712;2022-08-05T15:40:14;4.45;;;1.80;;
25351;SDS011;13304;48.464;8.712;2022-08-05T15:42:40;3.65;;;1.83;;
25351;SDS011;13304;48.464;8.712;2022-08-05T15:45:05;2.90;;;1.95;;
25351;SDS011;13304;48.464;8.712;2022-08-05T15:47:34;3.70;;;1.88;;
25351;SDS011;13304;48.464;8.712;2022-08-05T15:50:00;5.07;;;1.98;;
25351;SDS011;13304;48.464;8.712;2022-08-05T15:52:25;5.72;;;2.28;;
25351;SDS011;13304;48.464;8.712;2022-08-05T15:54:51;8.65;;;1.92;;
25351;SDS011;13304;48.464;8.712;2022-08-05T15:57:17;2.13;;;1.67;;
25351;SDS011;13304;48.464;8.712;2022-08-05T15:59:44;5.55;;;1.98;;
25351;SDS011;13304;48.464;8.712;2022-08-05T16:02:10;2.88;;;2.22;;
25351;SDS011;13304;48.464;8.712;2022-08-05T16:04:36;4.05;;;2.38;;
25351;SDS011;13304;48.464;8.712;2022-08-05T16:07:01;10.38;;;1.85;;
25351;SDS011;13304;48.464;8.712;2022-08-05T16:09:27;4.95;;;2.10;;
25351;SDS011;13304;48.464;8.712;2022-08-05T16:11:53;4.70;;;2.90;;